createdAt,value
2023-05-14T00:01:15.372Z,101800.32
2023-05-14T00:03:44.384Z,101800.52
2023-05-14T00:06:13.464Z,101800.48
2023-05-14T00:08:42.454Z,101804.17
2023-05-14T00:11:11.348Z,101805.65
2023-05-14T00:13:40.133Z,101806.53
2023-05-14T00:16:09.081Z,101805.09
2023-05-14T00:18:38.100Z,101805.25
2023-05-14T00:21:07.140Z,101808.55
2023-05-14T00:23:36.009Z,101808.91
2023-05-14T00:26:05.519Z,101812.98
2023-05-14T00:28:34.309Z,101810.45
2023-05-14T00:31:03.350Z,101804.59
2023-05-14T00:33:33.366Z,101799.30
2023-05-14T00:36:02.259Z,101796.18
2023-05-14T00:38:31.234Z,101793.27
2023-05-14T00:41:00.201Z,101790.38
2023-05-14T00:43:29.133Z,101791.66
2023-05-14T00:45:57.812Z,101785.66
2023-05-14T00:48:26.834Z,101782.30
2023-05-14T00:50:55.639Z,101782.55
2023-05-14T00:53:25.018Z,101777.34
2023-05-14T00:55:53.808Z,101778.92
2023-05-14T00:58:23.108Z,101781.09
2023-05-14T01:00:52.259Z,101777.88
2023-05-14T01:03:21.147Z,101772.92
2023-05-14T01:06:19.038Z,101771.39
2023-05-14T01:09:03.587Z,101768.37
2023-05-14T01:12:06.102Z,101768.75
2023-05-14T01:15:06.780Z,101773.16
2023-05-14T01:17:58.420Z,101774.89
2023-05-14T01:20:27.347Z,101773.11
2023-05-14T01:22:56.093Z,101776.67
2023-05-14T01:25:25.260Z,101781.73
2023-05-14T01:28:02.996Z,101778.01
2023-05-14T01:30:54.528Z,101780.41
2023-05-14T01:33:26.182Z,101776.41
2023-05-14T01:35:56.304Z,101774.14
2023-05-14T01:38:26.220Z,101774.11
2023-05-14T01:40:56.336Z,101776.14
2023-05-14T01:43:25.081Z,101782.69
2023-05-14T01:45:55.724Z,101782.69
2023-05-14T01:48:24.737Z,101782.82
2023-05-14T01:50:53.699Z,101780.71
2023-05-14T01:53:22.424Z,101787.27
2023-05-14T01:55:51.177Z,101787.95
2023-05-14T01:58:20.309Z,101786.28
2023-05-14T02:00:49.199Z,101788.33
2023-05-14T02:03:18.019Z,101792.38
2023-05-14T02:05:46.872Z,101795.73
2023-05-14T02:08:16.077Z,101795.45
2023-05-14T02:10:44.864Z,101797.48
2023-05-14T02:13:13.663Z,101796.41
2023-05-14T02:15:42.543Z,101794.46
2023-05-14T02:18:11.462Z,101795.98
2023-05-14T02:20:40.345Z,101796.29
2023-05-14T02:23:09.427Z,101792.29
2023-05-14T02:25:38.346Z,101796.91
2023-05-14T02:28:07.208Z,101795.06
2023-05-14T02:30:36.046Z,101794.23
2023-05-14T02:33:04.986Z,101791.13
2023-05-14T02:35:33.999Z,101792.14
2023-05-14T02:38:03.507Z,101792.27
2023-05-14T02:40:32.384Z,101796.50
2023-05-14T02:43:00.986Z,101796.96
2023-05-14T02:45:29.863Z,101796.05
2023-05-14T02:47:58.686Z,101797.38
2023-05-14T02:50:27.960Z,101795.52
2023-05-14T02:52:56.850Z,101792.69
2023-05-14T02:55:26.756Z,101791.02
2023-05-14T02:57:55.444Z,101790.81
2023-05-14T03:00:24.996Z,101794.84
2023-05-14T03:02:54.309Z,101793.80
2023-05-14T03:05:23.551Z,101792.92
2023-05-14T03:07:53.935Z,101792.04
2023-05-14T03:10:22.968Z,101792.00
2023-05-14T03:12:52.392Z,101790.73
2023-05-14T03:15:21.184Z,101793.70
2023-05-14T03:17:50.214Z,101791.83
2023-05-14T03:20:19.159Z,101790.58
2023-05-14T03:22:48.064Z,101801.63
2023-05-14T03:25:17.066Z,101806.27
2023-05-14T03:27:46.550Z,101810.11
2023-05-14T03:30:15.444Z,101814.82
2023-05-14T03:32:45.629Z,101816.20
2023-05-14T03:35:14.473Z,101822.48
2023-05-14T03:37:43.752Z,101819.47
2023-05-14T03:40:13.185Z,101816.41
2023-05-14T03:42:41.962Z,101812.50
2023-05-14T03:45:12.377Z,101816.07
2023-05-14T03:47:42.250Z,101817.38
2023-05-14T03:50:11.511Z,101817.10
2023-05-14T03:52:41.202Z,101820.89
2023-05-14T03:55:10.909Z,101822.41
2023-05-14T03:57:40.970Z,101822.09
2023-05-14T04:00:11.331Z,101826.65
2023-05-14T04:02:45.614Z,101828.40
2023-05-14T04:05:14.802Z,101829.06
2023-05-14T04:07:45.505Z,101834.88
2023-05-14T04:10:14.804Z,101839.61
2023-05-14T04:12:43.716Z,101845.27
2023-05-14T04:15:13.005Z,101844.54
2023-05-14T04:17:41.659Z,101844.02
2023-05-14T04:20:10.890Z,101847.27
2023-05-14T04:22:39.783Z,101842.83
2023-05-14T04:25:09.345Z,101841.95
2023-05-14T04:27:38.273Z,101839.14
2023-05-14T04:30:08.641Z,101841.53
2023-05-14T04:32:38.215Z,101842.70
2023-05-14T04:35:09.255Z,101845.09
2023-05-14T04:37:38.062Z,101849.29
2023-05-14T04:40:10.614Z,101847.84
2023-05-14T04:42:39.809Z,101848.20
2023-05-14T04:45:09.394Z,101852.04
2023-05-14T04:47:38.377Z,101854.34
2023-05-14T04:50:09.931Z,101860.81
2023-05-14T04:52:39.646Z,101864.15
2023-05-14T04:55:09.356Z,101860.42
2023-05-14T04:57:38.094Z,101859.16
2023-05-14T05:00:09.734Z,101856.14
2023-05-14T05:02:38.484Z,101859.59
2023-05-14T05:05:08.236Z,101858.73
2023-05-14T05:07:37.025Z,101862.60
2023-05-14T05:10:07.085Z,101858.21
2023-05-14T05:12:35.838Z,101854.23
2023-05-14T05:15:06.021Z,101853.36
2023-05-14T05:17:34.742Z,101855.38
2023-05-14T05:20:05.731Z,101856.58
2023-05-14T05:22:34.405Z,101856.50
2023-05-14T05:25:06.743Z,101855.13
2023-05-14T05:27:35.535Z,101858.04
2023-05-14T05:30:05.181Z,101856.45
2023-05-14T05:32:34.168Z,101853.95
2023-05-14T05:35:03.815Z,101853.05
2023-05-14T05:37:32.644Z,101847.98
2023-05-14T05:40:01.528Z,101851.67
2023-05-14T05:42:30.423Z,101851.70
2023-05-14T05:44:59.310Z,101853.27
2023-05-14T05:47:28.226Z,101852.30
2023-05-14T05:49:57.292Z,101850.34
2023-05-14T05:52:26.293Z,101844.55
2023-05-14T05:54:55.081Z,101844.81
2023-05-14T05:57:26.208Z,101845.02
2023-05-14T05:59:55.290Z,101842.50
2023-05-14T06:02:25.439Z,101841.75
2023-05-14T06:04:54.378Z,101841.16
2023-05-14T06:07:23.336Z,101834.82
2023-05-14T06:09:52.158Z,101838.34
2023-05-14T06:12:22.042Z,101837.68
2023-05-14T06:14:51.647Z,101836.02
2023-05-14T06:17:20.547Z,101833.70
2023-05-14T06:19:49.430Z,101830.89
2023-05-14T06:22:18.623Z,101829.26
2023-05-14T06:24:48.753Z,101829.88
2023-05-14T06:27:17.445Z,101826.44
2023-05-14T06:29:46.159Z,101821.86
2023-05-14T06:32:15.876Z,101821.07
2023-05-14T06:34:44.716Z,101819.15
2023-05-14T06:37:13.620Z,101817.89
2023-05-14T06:39:48.425Z,101814.08
2023-05-14T06:42:17.939Z,101810.55
2023-05-14T06:44:46.693Z,101813.36
2023-05-14T06:47:15.530Z,101811.73
2023-05-14T06:49:44.259Z,101813.27
2023-05-14T06:52:13.054Z,101812.34
2023-05-14T06:54:41.731Z,101808.81
2023-05-14T06:57:10.721Z,101803.63
2023-05-14T06:59:39.459Z,101797.39
2023-05-14T07:02:08.177Z,101796.94
2023-05-14T07:04:37.290Z,101798.09
2023-05-14T07:07:06.254Z,101803.20
2023-05-14T07:09:35.248Z,101801.83
2023-05-14T07:12:04.818Z,101804.16
2023-05-14T07:14:33.555Z,101798.45
2023-05-14T07:17:02.476Z,101794.95
2023-05-14T07:19:31.214Z,101790.45
2023-05-14T07:21:59.919Z,101790.30
2023-05-14T07:24:28.589Z,101785.21
2023-05-14T07:26:57.676Z,101780.29
2023-05-14T07:29:26.512Z,101779.83
2023-05-14T07:31:55.226Z,101776.87
2023-05-14T07:34:23.857Z,101775.36
2023-05-14T07:36:53.240Z,101771.24
2023-05-14T07:39:21.991Z,101767.27
2023-05-14T07:41:51.785Z,101763.01
2023-05-14T07:44:20.889Z,101760.27
2023-05-14T07:46:49.593Z,101757.29
2023-05-14T07:49:18.401Z,101757.65
2023-05-14T07:51:47.052Z,101756.40
2023-05-14T07:54:15.928Z,101756.74
2023-05-14T07:56:44.813Z,101756.22
2023-05-14T07:59:13.700Z,101753.10
2023-05-14T08:01:42.814Z,101753.45
2023-05-14T08:04:16.583Z,101750.80
2023-05-14T08:06:45.684Z,101752.19
2023-05-14T08:09:14.547Z,101751.35
2023-05-14T08:11:43.318Z,101747.04
2023-05-14T08:14:12.033Z,101745.96
2023-05-14T08:16:40.989Z,101747.19
2023-05-14T08:19:09.968Z,101742.98
2023-05-14T08:21:38.760Z,101742.42
2023-05-14T08:24:08.095Z,101741.73
2023-05-14T08:26:37.227Z,101735.23
2023-05-14T08:29:06.007Z,101736.49
2023-05-14T08:31:34.741Z,101738.22
2023-05-14T08:34:03.903Z,101730.16
2023-05-14T08:36:33.166Z,101729.04
2023-05-14T08:39:01.918Z,101730.39
2023-05-14T08:41:30.708Z,101727.59
2023-05-14T08:44:15.251Z,101727.44
2023-05-14T08:46:44.945Z,101724.20
2023-05-14T08:49:43.822Z,101719.65
2023-05-14T08:52:13.539Z,101716.88
2023-05-14T08:54:42.437Z,101714.83
2023-05-14T08:57:11.971Z,101713.05
2023-05-14T08:59:41.550Z,101711.77
2023-05-14T09:02:13.872Z,101706.67
2023-05-14T09:04:43.491Z,101702.95
2023-05-14T09:07:12.912Z,101699.04
2023-05-14T09:09:41.957Z,101691.83
2023-05-14T09:12:10.803Z,101683.21
2023-05-14T09:14:39.831Z,101692.56
2023-05-14T09:17:08.977Z,101687.38
2023-05-14T09:19:39.352Z,101684.98
2023-05-14T09:22:17.527Z,101680.60
2023-05-14T09:24:47.321Z,101675.27
2023-05-14T09:27:20.921Z,101671.91
2023-05-14T09:29:49.629Z,101674.33
2023-05-14T09:32:18.350Z,101670.32
2023-05-14T09:34:47.025Z,101666.36
2023-05-14T09:37:15.845Z,101665.34
2023-05-14T09:39:44.614Z,101661.98
2023-05-14T09:42:13.337Z,101658.52
2023-05-14T09:44:42.302Z,101659.98
2023-05-14T09:47:11.020Z,101658.41
2023-05-14T09:49:40.625Z,101655.87
2023-05-14T09:52:09.534Z,101654.66
2023-05-14T09:54:39.038Z,101649.11
2023-05-14T09:57:07.777Z,101650.46
2023-05-14T09:59:36.416Z,101642.40
2023-05-14T10:02:06.978Z,101646.92
2023-05-14T10:04:37.161Z,101649.06
2023-05-14T10:07:06.102Z,101641.02
2023-05-14T10:09:38.859Z,101636.29
2023-05-14T10:12:08.832Z,101629.65
2023-05-14T10:14:43.393Z,101621.36
2023-05-14T10:17:18.693Z,101623.92
2023-05-14T10:19:53.004Z,101622.64
2023-05-14T10:22:26.043Z,101612.63
2023-05-14T10:24:56.643Z,101611.80
2023-05-14T10:27:26.077Z,101605.91
2023-05-14T10:29:56.313Z,101605.63
2023-05-14T10:32:26.743Z,101602.86
2023-05-14T10:34:55.899Z,101601.34
2023-05-14T10:37:28.457Z,101601.64
2023-05-14T10:40:06.437Z,101600.86
2023-05-14T10:42:43.709Z,101602.22
2023-05-14T10:45:15.247Z,101599.46
2023-05-14T10:47:47.049Z,101594.41
2023-05-14T10:50:16.520Z,101593.04
2023-05-14T10:52:46.474Z,101587.91
2023-05-14T10:55:17.183Z,101589.06
2023-05-14T10:57:47.225Z,101591.08
2023-05-14T11:00:16.782Z,101586.80
2023-05-14T11:02:47.183Z,101586.81
2023-05-14T11:05:20.170Z,101588.79
2023-05-14T11:07:50.483Z,101587.55
2023-05-14T11:10:22.421Z,101589.45
2023-05-14T11:12:52.124Z,101588.74
2023-05-14T11:15:26.374Z,101585.94
2023-05-14T11:17:55.263Z,101580.01
2023-05-14T11:20:24.361Z,101578.52
2023-05-14T11:22:53.311Z,101584.84
2023-05-14T11:25:22.981Z,101582.94
2023-05-14T11:27:52.505Z,101583.93
2023-05-14T11:30:22.230Z,101578.01
2023-05-14T11:32:51.776Z,101578.57
2023-05-14T11:35:20.531Z,101579.17
2023-05-14T11:37:52.908Z,101573.14
2023-05-14T11:40:22.326Z,101568.92
2023-05-14T11:42:53.689Z,101562.77
2023-05-14T11:45:30.160Z,101566.14
2023-05-14T11:47:58.967Z,101565.17
2023-05-14T11:50:27.771Z,101561.06
2023-05-14T11:52:59.620Z,101551.45
2023-05-14T11:55:28.464Z,101551.40
2023-05-14T11:57:57.398Z,101548.73
2023-05-14T12:00:27.218Z,101537.44
2023-05-14T12:02:56.620Z,101532.69
2023-05-14T12:05:26.097Z,101539.02
2023-05-14T12:07:56.385Z,101537.58
2023-05-14T12:10:25.771Z,101534.12
2023-05-14T12:12:54.903Z,101533.50
2023-05-14T12:15:23.792Z,101525.23
2023-05-14T12:17:52.731Z,101518.67
2023-05-14T12:20:23.408Z,101512.85
2023-05-14T12:22:52.943Z,101512.64
2023-05-14T12:25:21.912Z,101508.98
2023-05-14T12:27:50.630Z,101507.09
2023-05-14T12:30:21.444Z,101501.13
2023-05-14T12:32:53.125Z,101496.58
2023-05-14T12:35:23.383Z,101490.24
2023-05-14T12:37:52.356Z,101483.05
2023-05-14T12:40:21.274Z,101482.54
2023-05-14T12:42:50.147Z,101478.94
2023-05-14T12:45:19.037Z,101480.02
2023-05-14T12:47:47.835Z,101470.14
2023-05-14T12:50:16.633Z,101470.29
2023-05-14T12:52:46.715Z,101461.88
2023-05-14T12:55:15.439Z,101457.26
2023-05-14T12:57:45.193Z,101454.46
2023-05-14T13:00:15.592Z,101449.03
2023-05-14T13:02:44.662Z,101456.30
2023-05-14T13:05:13.530Z,101453.25
2023-05-14T13:07:42.777Z,101445.98
2023-05-14T13:10:11.994Z,101442.17
2023-05-14T13:12:41.084Z,101438.06
2023-05-14T13:15:10.977Z,101434.80
2023-05-14T13:17:41.508Z,101428.33
2023-05-14T13:20:10.894Z,101431.97
2023-05-14T13:22:39.812Z,101431.81
2023-05-14T13:25:09.430Z,101431.36
2023-05-14T13:27:38.142Z,101432.55
2023-05-14T13:30:07.935Z,101430.21
2023-05-14T13:32:36.736Z,101430.23
2023-05-14T13:35:07.990Z,101431.24
2023-05-14T13:37:37.016Z,101429.77
2023-05-14T13:40:09.279Z,101427.39
2023-05-14T13:42:39.893Z,101426.89
2023-05-14T13:45:09.792Z,101420.55
2023-05-14T13:47:40.077Z,101423.45
2023-05-14T13:50:09.584Z,101428.04
2023-05-14T13:52:39.252Z,101427.95
2023-05-14T13:55:08.644Z,101428.44
2023-05-14T13:57:37.490Z,101430.59
2023-05-14T14:00:07.274Z,101434.42
2023-05-14T14:02:36.022Z,101436.50
2023-05-14T14:05:05.642Z,101424.44
2023-05-14T14:07:34.345Z,101419.83
2023-05-14T14:10:03.004Z,101423.54
2023-05-14T14:12:31.800Z,101416.75
2023-05-14T14:15:01.265Z,101412.40
2023-05-14T14:17:30.011Z,101410.41
2023-05-14T14:19:58.767Z,101416.86
2023-05-14T14:22:29.106Z,101412.59
2023-05-14T14:24:58.192Z,101415.38
2023-05-14T14:27:26.962Z,101414.27
2023-05-14T14:29:56.915Z,101413.63
2023-05-14T14:32:25.824Z,101410.25
2023-05-14T14:34:54.456Z,101407.27
2023-05-14T14:37:24.040Z,101406.36
2023-05-14T14:39:53.344Z,101402.10
2023-05-14T14:42:22.092Z,101402.61
2023-05-14T14:44:50.965Z,101414.00
2023-05-14T14:47:19.675Z,101407.22
2023-05-14T14:49:48.400Z,101407.08
2023-05-14T14:52:17.243Z,101401.14
2023-05-14T14:54:45.941Z,101397.36
2023-05-14T14:57:14.625Z,101391.31
2023-05-14T14:59:43.303Z,101393.44
2023-05-14T15:02:12.040Z,101394.16
2023-05-14T15:04:40.858Z,101388.66
2023-05-14T15:07:09.574Z,101383.98
2023-05-14T15:09:38.290Z,101386.25
2023-05-14T15:12:09.139Z,101385.11
2023-05-14T15:14:37.820Z,101381.88
2023-05-14T15:17:06.576Z,101375.61
2023-05-14T15:19:35.283Z,101371.58
2023-05-14T15:22:04.557Z,101368.05
2023-05-14T15:24:33.219Z,101370.05
2023-05-14T15:27:01.967Z,101365.34
2023-05-14T15:29:30.685Z,101362.73
2023-05-14T15:31:59.480Z,101354.73
2023-05-14T15:34:28.317Z,101352.46
2023-05-14T15:36:57.077Z,101348.66
2023-05-14T15:39:25.759Z,101341.98
2023-05-14T15:41:54.466Z,101340.48
2023-05-14T15:44:23.215Z,101335.91
2023-05-14T15:46:52.084Z,101333.52
2023-05-14T15:49:20.933Z,101338.03
2023-05-14T15:51:49.742Z,101334.73
2023-05-14T15:54:18.558Z,101332.11
2023-05-14T15:56:47.524Z,101328.41
2023-05-14T15:59:17.746Z,101319.45
2023-05-14T16:01:46.510Z,101316.10
2023-05-14T16:04:15.260Z,101315.85
2023-05-14T16:06:45.401Z,101317.38
2023-05-14T16:09:14.997Z,101315.80
2023-05-14T16:11:43.678Z,101317.86
2023-05-14T16:14:12.434Z,101314.02
2023-05-14T16:16:41.326Z,101317.79
2023-05-14T16:19:10.178Z,101314.59
2023-05-14T16:21:38.972Z,101308.59
2023-05-14T16:24:08.381Z,101309.40
2023-05-14T16:26:37.119Z,101309.49
2023-05-14T16:29:05.980Z,101314.95
2023-05-14T16:31:34.725Z,101313.36
2023-05-14T16:34:03.391Z,101311.02
2023-05-14T16:36:32.416Z,101310.45
2023-05-14T16:41:32.839Z,101315.29
2023-05-14T16:44:01.667Z,101314.22
2023-05-14T16:46:31.372Z,101303.61
2023-05-14T16:49:00.185Z,101307.99
2023-05-14T16:51:28.940Z,101311.48
2023-05-14T16:53:57.679Z,101309.66
2023-05-14T16:56:26.699Z,101321.59
2023-05-14T16:58:55.447Z,101323.23
2023-05-14T17:01:24.182Z,101324.11
2023-05-14T17:03:52.836Z,101325.12
2023-05-14T17:06:21.472Z,101321.20
2023-05-14T17:08:50.148Z,101316.16
2023-05-14T17:11:18.777Z,101314.76
2023-05-14T17:14:01.563Z,101314.20
2023-05-14T17:16:29.167Z,101322.33
2023-05-14T17:18:56.676Z,101326.08
2023-05-14T17:21:25.418Z,101331.44
2023-05-14T17:23:54.075Z,101334.81
2023-05-14T17:26:23.487Z,101340.55
2023-05-14T17:28:52.138Z,101346.70
2023-05-14T17:31:21.956Z,101351.97
2023-05-14T17:33:50.631Z,101359.79
2023-05-14T17:36:19.361Z,101361.54
2023-05-14T17:38:48.263Z,101364.70
2023-05-14T17:41:16.987Z,101362.80
2023-05-14T17:43:45.726Z,101365.05
2023-05-14T17:46:14.472Z,101366.13
2023-05-14T17:48:43.151Z,101367.12
2023-05-14T17:51:11.785Z,101368.90
2023-05-14T17:53:40.442Z,101378.98
2023-05-14T17:56:09.274Z,101388.60
2023-05-14T17:58:38.005Z,101393.65
2023-05-14T18:01:06.784Z,101396.30
2023-05-14T18:03:35.699Z,101394.89
2023-05-14T18:06:04.972Z,101393.70
2023-05-14T18:08:33.653Z,101387.42
2023-05-14T18:11:02.370Z,101386.93
2023-05-14T18:13:31.116Z,101385.00
2023-05-14T18:16:00.838Z,101380.62
2023-05-14T18:18:29.622Z,101375.81
2023-05-14T18:20:58.496Z,101368.42
2023-05-14T18:23:27.326Z,101365.73
2023-05-14T18:25:56.050Z,101360.88
2023-05-14T18:28:24.823Z,101362.17
2023-05-14T18:30:53.611Z,101360.61
2023-05-14T18:33:22.430Z,101356.70
2023-05-14T18:35:51.878Z,101358.94
2023-05-14T18:38:20.715Z,101352.35
2023-05-14T18:40:49.711Z,101347.36
2023-05-14T18:43:19.904Z,101342.35
2023-05-14T18:45:48.816Z,101340.83
2023-05-14T18:48:17.762Z,101343.76
2023-05-14T18:50:46.394Z,101346.66
2023-05-14T18:53:15.342Z,101353.05
2023-05-14T18:55:44.196Z,101356.32
2023-05-14T18:58:13.239Z,101361.54
2023-05-14T19:00:41.988Z,101365.75
2023-05-14T19:03:10.933Z,101371.02
2023-05-14T19:05:39.776Z,101372.69
2023-05-14T19:08:08.488Z,101378.52
2023-05-14T19:10:37.252Z,101374.09
2023-05-14T19:13:06.039Z,101371.00
2023-05-14T19:15:34.759Z,101372.14
2023-05-14T19:18:03.596Z,101371.69
2023-05-14T19:20:32.403Z,101372.97
2023-05-14T19:23:01.095Z,101373.14
2023-05-14T19:25:30.131Z,101376.88
2023-05-14T19:28:01.702Z,101370.60
2023-05-14T19:30:30.783Z,101371.87
2023-05-14T19:32:59.680Z,101378.56
2023-05-14T19:35:28.448Z,101382.11
2023-05-14T19:37:57.267Z,101379.27
2023-05-14T19:40:26.032Z,101378.84
2023-05-14T19:42:54.707Z,101379.89
2023-05-14T19:45:23.520Z,101376.65
2023-05-14T19:47:52.469Z,101371.66
2023-05-14T19:50:21.229Z,101375.27
2023-05-14T19:52:49.948Z,101370.57
2023-05-14T19:55:18.669Z,101371.02
2023-05-14T19:57:47.424Z,101373.38
2023-05-14T20:00:16.459Z,101363.95
2023-05-14T20:02:45.145Z,101361.51
2023-05-14T20:05:14.197Z,101357.45
2023-05-14T20:07:43.945Z,101360.86
2023-05-14T20:10:12.983Z,101361.32
2023-05-14T20:12:41.727Z,101356.86
2023-05-14T20:15:11.009Z,101352.35
2023-05-14T20:17:39.911Z,101351.66
2023-05-14T20:20:10.087Z,101349.90
2023-05-14T20:22:40.090Z,101347.94
2023-05-14T20:25:10.231Z,101346.40
2023-05-14T20:27:39.102Z,101344.52
2023-05-14T20:30:08.835Z,101332.89
2023-05-14T20:32:37.724Z,101323.62
2023-05-14T20:35:07.174Z,101324.91
2023-05-14T20:37:36.022Z,101320.17
2023-05-14T20:40:06.368Z,101316.02
2023-05-14T20:42:36.540Z,101311.49
2023-05-14T20:45:06.827Z,101307.15
2023-05-14T20:47:35.800Z,101304.94
2023-05-14T20:50:04.895Z,101307.65
2023-05-14T20:52:33.579Z,101308.03
2023-05-14T20:55:02.507Z,101310.23
2023-05-14T20:57:31.341Z,101303.73
2023-05-14T20:59:59.989Z,101300.88
2023-05-14T21:02:28.732Z,101297.04
2023-05-14T21:04:57.502Z,101292.30
2023-05-14T21:07:27.607Z,101288.19
2023-05-14T21:09:57.591Z,101287.55
2023-05-14T21:12:26.268Z,101294.06
2023-05-14T21:14:54.997Z,101296.35
2023-05-14T21:17:23.743Z,101301.70
2023-05-14T21:19:52.424Z,101306.29
2023-05-14T21:22:22.813Z,101305.48
2023-05-14T21:24:51.540Z,101305.31
2023-05-14T21:27:20.220Z,101301.24
2023-05-14T21:29:48.946Z,101297.36
2023-05-14T21:32:18.112Z,101294.48
2023-05-14T21:34:46.803Z,101289.20
2023-05-14T21:37:15.856Z,101285.86
2023-05-14T21:39:44.558Z,101282.73
2023-05-14T21:42:13.295Z,101271.35
2023-05-14T21:44:41.932Z,101278.80
2023-05-14T21:47:11.590Z,101280.45
2023-05-14T21:49:40.280Z,101276.14
2023-05-14T21:52:09.068Z,101279.60
2023-05-14T21:54:37.698Z,101282.13
2023-05-14T21:57:06.654Z,101283.94
2023-05-14T21:59:35.644Z,101282.73
2023-05-14T22:02:07.348Z,101280.63
2023-05-14T22:04:36.794Z,101279.60
2023-05-14T22:07:05.677Z,101275.48
2023-05-14T22:09:34.346Z,101271.12
2023-05-14T22:12:03.057Z,101267.59
2023-05-14T22:14:31.792Z,101265.96
2023-05-14T22:17:00.477Z,101258.84
2023-05-14T22:19:29.212Z,101255.41
2023-05-14T22:21:57.867Z,101253.23
2023-05-14T22:24:26.587Z,101252.58
2023-05-14T22:26:55.295Z,101250.38
2023-05-14T22:29:23.990Z,101246.34
2023-05-14T22:31:52.886Z,101243.69
2023-05-14T22:34:21.683Z,101234.20
2023-05-14T22:36:50.356Z,101230.13
2023-05-14T22:39:19.064Z,101227.56
2023-05-14T22:41:47.748Z,101224.92
2023-05-14T22:44:16.430Z,101225.34
2023-05-14T22:46:45.140Z,101219.14
2023-05-14T22:49:14.106Z,101217.52
2023-05-14T22:51:42.998Z,101212.20
2023-05-14T22:54:11.691Z,101211.67
2023-05-14T22:56:40.384Z,101213.41
2023-05-14T22:59:09.160Z,101219.20
2023-05-14T23:01:38.453Z,101222.48
2023-05-14T23:04:07.266Z,101221.75
2023-05-14T23:06:35.973Z,101219.42
2023-05-14T23:09:04.681Z,101214.86
2023-05-14T23:11:33.370Z,101207.34
2023-05-14T23:14:02.074Z,101207.31
2023-05-14T23:16:30.807Z,101201.52
2023-05-14T23:18:59.624Z,101202.59
2023-05-14T23:21:28.332Z,101207.89
2023-05-14T23:23:56.993Z,101208.22
2023-05-14T23:26:25.718Z,101210.48
2023-05-14T23:28:54.428Z,101211.96
2023-05-14T23:31:23.097Z,101209.51
2023-05-14T23:33:51.784Z,101207.09
2023-05-14T23:36:20.671Z,101204.91
2023-05-14T23:38:49.499Z,101201.55
2023-05-14T23:41:18.265Z,101202.50
2023-05-14T23:43:47.057Z,101204.30
2023-05-14T23:46:16.416Z,101198.06
2023-05-14T23:48:45.099Z,101209.70
2023-05-14T23:51:13.736Z,101213.95
2023-05-14T23:53:42.382Z,101211.52
2023-05-14T23:56:12.116Z,101204.77
2023-05-14T23:58:40.866Z,101205.25
